createdAt,value
2023-03-11T00:00:29.362Z,0.75
2023-03-11T00:01:11.518Z,1.48
2023-03-11T00:01:53.203Z,0.60
2023-03-11T00:02:34.982Z,0.38
2023-03-11T00:03:19.791Z,0.30
2023-03-11T00:04:01.758Z,0.20
2023-03-11T00:04:44.192Z,0.30
2023-03-11T00:05:31.712Z,0.20
2023-03-11T00:06:13.793Z,0.20
2023-03-11T00:06:55.588Z,0.28
2023-03-11T00:07:39.810Z,0.20
2023-03-11T00:08:25.581Z,0.30
2023-03-11T00:09:07.364Z,0.20
2023-03-11T00:09:49.289Z,0.30
2023-03-11T00:10:42.485Z,0.25
2023-03-11T00:11:25.129Z,0.20
2023-03-11T00:12:07.193Z,0.22
2023-03-11T00:12:48.912Z,0.20
2023-03-11T00:13:31.028Z,0.15
2023-03-11T00:14:12.785Z,0.20
2023-03-11T00:14:54.670Z,0.20
2023-03-11T00:15:37.273Z,0.20
2023-03-11T00:16:19.010Z,0.30
2023-03-11T00:17:00.800Z,0.40
2023-03-11T00:17:42.830Z,0.30
2023-03-11T00:18:27.151Z,0.50
2023-03-11T00:19:10.667Z,1.15
2023-03-11T00:19:52.371Z,1.63
2023-03-11T00:20:37.732Z,0.40
2023-03-11T00:21:20.312Z,0.20
2023-03-11T00:22:03.097Z,0.30
2023-03-11T00:22:44.913Z,0.17
2023-03-11T00:23:28.327Z,0.20
2023-03-11T00:24:10.083Z,0.20
2023-03-11T00:24:51.786Z,0.20
2023-03-11T00:25:35.466Z,0.10
2023-03-11T00:26:17.278Z,0.20
2023-03-11T00:26:59.070Z,0.13
2023-03-11T00:27:40.770Z,0.15
2023-03-11T00:28:26.032Z,0.20
2023-03-11T00:29:07.790Z,0.20
2023-03-11T00:29:49.683Z,0.17
2023-03-11T00:30:31.828Z,0.20
2023-03-11T00:31:14.482Z,0.10
2023-03-11T00:31:56.264Z,0.20
2023-03-11T00:32:38.102Z,0.28
2023-03-11T00:33:19.970Z,0.30
2023-03-11T00:34:01.768Z,0.15
2023-03-11T00:34:43.526Z,0.30
2023-03-11T00:35:30.817Z,0.10
2023-03-11T00:36:28.921Z,0.10
2023-03-11T00:37:10.642Z,0.10
2023-03-11T00:37:55.027Z,0.13
2023-03-11T00:38:36.716Z,0.10
2023-03-11T00:39:18.490Z,0.20
2023-03-11T00:40:00.582Z,0.20
2023-03-11T00:40:43.667Z,0.10
2023-03-11T00:41:25.593Z,0.10
2023-03-11T00:42:07.845Z,0.10
2023-03-11T00:42:49.622Z,0.20
2023-03-11T00:43:31.330Z,0.10
2023-03-11T00:44:13.032Z,0.10
2023-03-11T00:44:54.676Z,0.20
2023-03-11T00:45:36.732Z,0.25
2023-03-11T00:46:18.705Z,0.10
2023-03-11T00:47:00.603Z,0.20
2023-03-11T00:47:42.730Z,0.10
2023-03-11T00:48:24.520Z,0.10
2023-03-11T00:49:06.406Z,0.30
2023-03-11T00:49:48.135Z,0.20
2023-03-11T00:50:33.618Z,0.32
2023-03-11T00:51:15.814Z,0.32
2023-03-11T00:51:57.496Z,0.10
2023-03-11T00:52:39.503Z,0.20
2023-03-11T00:53:21.242Z,0.20
2023-03-11T00:54:03.271Z,0.30
2023-03-11T00:54:46.243Z,0.40
2023-03-11T00:55:31.716Z,0.30
2023-03-11T00:56:16.260Z,0.20
2023-03-11T00:56:58.777Z,0.17
2023-03-11T00:57:40.730Z,0.20
2023-03-11T00:58:27.225Z,0.10
2023-03-11T00:59:10.665Z,0.30
2023-03-11T00:59:53.404Z,0.20
2023-03-11T01:00:35.658Z,0.20
2023-03-11T01:01:20.017Z,0.22
2023-03-11T01:02:01.915Z,0.20
2023-03-11T01:02:44.016Z,0.10
2023-03-11T01:03:25.754Z,0.20
2023-03-11T01:04:07.505Z,0.20
2023-03-11T01:04:54.368Z,0.20
2023-03-11T01:05:36.304Z,0.20
2023-03-11T01:06:18.028Z,0.10
2023-03-11T01:07:00.674Z,0.43
2023-03-11T01:07:42.446Z,0.30
2023-03-11T01:08:24.165Z,0.20
2023-03-11T01:09:06.158Z,0.20
2023-03-11T01:09:47.902Z,0.25
2023-03-11T01:10:30.942Z,0.20
2023-03-11T01:11:12.778Z,0.28
2023-03-11T01:11:54.436Z,0.20
2023-03-11T01:12:36.286Z,0.30
2023-03-11T01:13:18.013Z,0.20
2023-03-11T01:13:59.787Z,0.20
2023-03-11T01:14:41.504Z,0.20
2023-03-11T01:15:31.342Z,0.20
2023-03-11T01:16:13.987Z,0.32
2023-03-11T01:16:56.842Z,0.20
2023-03-11T01:17:38.588Z,0.30
2023-03-11T01:18:20.655Z,0.30
2023-03-11T01:19:02.389Z,0.30
2023-03-11T01:19:45.179Z,0.20
2023-03-11T01:20:27.446Z,0.23
2023-03-11T01:21:09.261Z,0.30
2023-03-11T01:21:50.982Z,0.15
2023-03-11T01:22:32.739Z,0.20
2023-03-11T01:23:16.465Z,0.20
2023-03-11T01:23:58.225Z,0.30
2023-03-11T01:24:40.030Z,0.20
2023-03-11T01:25:23.422Z,0.30
2023-03-11T01:26:05.410Z,0.10
2023-03-11T01:26:47.296Z,0.20
2023-03-11T01:27:29.045Z,0.20
2023-03-11T01:28:11.152Z,0.20
2023-03-11T01:28:52.901Z,0.20
2023-03-11T01:29:34.774Z,0.20
2023-03-11T01:30:23.594Z,0.20
2023-03-11T01:31:05.447Z,0.28
2023-03-11T01:31:47.358Z,0.20
2023-03-11T01:32:29.106Z,0.28
2023-03-11T01:33:16.022Z,0.30
2023-03-11T01:33:57.785Z,0.20
2023-03-11T01:34:41.097Z,0.20
2023-03-11T01:35:26.234Z,0.40
2023-03-11T01:36:09.055Z,0.20
2023-03-11T01:36:50.942Z,0.20
2023-03-11T01:37:34.407Z,0.10
2023-03-11T01:38:17.261Z,0.15
2023-03-11T01:38:59.067Z,0.20
2023-03-11T01:39:40.870Z,0.20
2023-03-11T01:40:36.507Z,0.20
2023-03-11T01:41:21.841Z,0.20
2023-03-11T01:42:03.875Z,0.20
2023-03-11T01:42:45.779Z,0.30
2023-03-11T01:43:40.679Z,0.30
2023-03-11T01:44:42.636Z,0.20
2023-03-11T01:45:31.010Z,0.30
2023-03-11T01:46:31.265Z,0.20
2023-03-11T01:47:13.011Z,0.38
2023-03-11T01:47:55.114Z,0.20
2023-03-11T01:48:38.816Z,0.30
2023-03-11T01:49:22.100Z,0.30
2023-03-11T01:50:06.875Z,0.20
2023-03-11T01:50:50.704Z,0.30
2023-03-11T01:51:42.834Z,0.30
2023-03-11T01:52:26.404Z,0.22
2023-03-11T01:53:09.425Z,0.30
2023-03-11T01:53:53.541Z,0.20
2023-03-11T01:54:38.547Z,0.30
2023-03-11T01:55:20.513Z,0.30
2023-03-11T01:56:04.639Z,0.22
2023-03-11T01:56:48.772Z,0.40
2023-03-11T01:57:31.100Z,0.30
2023-03-11T01:58:20.913Z,0.20
2023-03-11T01:59:03.287Z,0.40
2023-03-11T01:59:50.829Z,0.40
2023-03-11T02:00:32.947Z,0.40
2023-03-11T02:01:14.862Z,0.20
2023-03-11T02:02:14.518Z,0.30
2023-03-11T02:03:00.387Z,0.35
2023-03-11T02:03:43.252Z,0.35
2023-03-11T02:04:25.233Z,0.20
2023-03-11T02:05:09.587Z,0.20
2023-03-11T02:05:54.165Z,0.30
2023-03-11T02:06:36.144Z,0.30
2023-03-11T02:07:18.252Z,0.30
2023-03-11T02:08:01.825Z,0.30
2023-03-11T02:08:48.135Z,0.30
2023-03-11T02:09:30.609Z,0.30
2023-03-11T02:10:13.693Z,0.20
2023-03-11T02:10:57.136Z,0.25
2023-03-11T02:11:39.142Z,0.38
2023-03-11T02:12:21.366Z,0.22
2023-03-11T02:13:04.278Z,0.20
2023-03-11T02:13:46.869Z,0.28
2023-03-11T02:14:30.366Z,0.47
2023-03-11T02:15:13.274Z,0.20
2023-03-11T02:15:55.119Z,0.30
2023-03-11T02:16:36.888Z,0.25
2023-03-11T02:17:18.746Z,0.22
2023-03-11T02:18:05.201Z,0.30
2023-03-11T02:18:47.472Z,0.20
2023-03-11T02:19:59.228Z,0.20
2023-03-11T02:21:04.838Z,0.30
2023-03-11T02:21:46.917Z,0.20
2023-03-11T02:22:33.299Z,0.40
2023-03-11T02:23:21.315Z,0.30
2023-03-11T02:24:19.632Z,0.30
2023-03-11T02:25:04.088Z,0.20
2023-03-11T02:25:51.528Z,0.20
2023-03-11T02:26:43.095Z,0.35
2023-03-11T02:27:27.705Z,0.20
2023-03-11T02:28:12.792Z,0.30
2023-03-11T02:28:56.266Z,0.25
2023-03-11T02:29:39.167Z,0.70
2023-03-11T02:30:23.722Z,0.30
2023-03-11T02:31:05.724Z,0.30
2023-03-11T02:31:49.563Z,0.20
2023-03-11T02:32:33.927Z,0.38
2023-03-11T02:33:17.658Z,0.22
2023-03-11T02:34:04.446Z,0.30
2023-03-11T02:34:46.399Z,0.40
2023-03-11T02:35:29.959Z,0.63
2023-03-11T02:36:41.195Z,0.20
2023-03-11T02:37:25.716Z,0.43
2023-03-11T02:38:14.103Z,0.38
2023-03-11T02:38:56.716Z,0.30
2023-03-11T02:39:42.007Z,0.20
2023-03-11T02:40:55.716Z,0.28
2023-03-11T02:41:42.251Z,0.25
2023-03-11T02:42:27.770Z,0.20
2023-03-11T02:43:14.002Z,0.30
2023-03-11T02:43:56.394Z,0.35
2023-03-11T02:44:42.610Z,0.30
2023-03-11T02:45:26.459Z,0.30
2023-03-11T02:46:10.726Z,0.20
2023-03-11T02:46:53.494Z,0.20
2023-03-11T02:47:38.744Z,0.38
2023-03-11T02:48:23.933Z,0.20
2023-03-11T02:49:06.453Z,0.45
2023-03-11T02:49:48.990Z,0.30
2023-03-11T02:50:31.718Z,0.30
2023-03-11T02:51:13.503Z,0.30
2023-03-11T02:51:55.639Z,0.63
2023-03-11T02:52:37.491Z,0.40
2023-03-11T02:53:19.304Z,0.35
2023-03-11T02:54:05.156Z,0.30
2023-03-11T02:54:48.134Z,0.30
2023-03-11T02:55:30.184Z,0.35
2023-03-11T02:56:11.881Z,0.30
2023-03-11T02:56:53.611Z,0.22
2023-03-11T02:57:35.675Z,0.20
2023-03-11T02:58:19.908Z,0.32
2023-03-11T02:59:01.737Z,0.47
2023-03-11T02:59:44.845Z,0.20
2023-03-11T03:00:28.009Z,0.30
2023-03-11T03:01:15.667Z,0.30
2023-03-11T03:01:59.707Z,0.30
2023-03-11T03:02:43.112Z,0.20
2023-03-11T03:03:25.409Z,0.30
2023-03-11T03:04:07.188Z,0.32
2023-03-11T03:04:49.054Z,0.38
2023-03-11T03:05:31.336Z,0.20
2023-03-11T03:06:15.689Z,0.30
2023-03-11T03:06:57.417Z,0.32
2023-03-11T03:07:39.638Z,0.30
2023-03-11T03:08:21.447Z,0.30
2023-03-11T03:09:03.536Z,0.37
2023-03-11T03:09:45.353Z,0.40
2023-03-11T03:10:27.224Z,0.80
2023-03-11T03:11:09.078Z,0.43
2023-03-11T03:11:50.823Z,0.50
2023-03-11T03:12:32.559Z,0.40
2023-03-11T03:13:14.386Z,0.30
2023-03-11T03:13:56.147Z,0.30
2023-03-11T03:14:38.441Z,0.40
2023-03-11T03:15:20.346Z,0.20
2023-03-11T03:16:02.731Z,0.30
2023-03-11T03:16:44.661Z,0.20
2023-03-11T03:17:26.615Z,0.30
2023-03-11T03:18:08.399Z,0.35
2023-03-11T03:18:50.197Z,0.22
2023-03-11T03:19:32.165Z,0.40
2023-03-11T03:20:14.796Z,0.30
2023-03-11T03:21:01.768Z,0.30
2023-03-11T03:21:43.600Z,0.40
2023-03-11T03:22:27.513Z,0.25
2023-03-11T03:23:09.438Z,0.30
2023-03-11T03:23:51.491Z,0.30
2023-03-11T03:24:33.215Z,0.32
2023-03-11T03:25:15.125Z,0.30
2023-03-11T03:25:56.845Z,0.30
2023-03-11T03:26:38.852Z,0.20
2023-03-11T03:27:22.053Z,0.32
2023-03-11T03:28:04.228Z,0.30
2023-03-11T03:28:48.840Z,0.30
2023-03-11T03:29:30.924Z,0.40
2023-03-11T03:30:12.969Z,0.45
2023-03-11T03:30:55.425Z,0.40
2023-03-11T03:31:38.435Z,0.45
2023-03-11T03:32:20.249Z,0.30
2023-03-11T03:33:02.169Z,0.40
2023-03-11T03:33:45.322Z,0.40
2023-03-11T03:34:27.182Z,0.30
2023-03-11T03:35:09.310Z,0.30
2023-03-11T03:36:13.696Z,0.30
2023-03-11T03:36:58.524Z,0.25
2023-03-11T03:37:40.262Z,0.30
2023-03-11T03:38:22.074Z,0.30
2023-03-11T03:39:06.098Z,0.30
2023-03-11T03:39:51.132Z,0.20
2023-03-11T03:40:33.649Z,0.45
2023-03-11T03:41:18.059Z,0.40
2023-03-11T03:42:00.176Z,0.38
2023-03-11T03:42:43.591Z,0.32
2023-03-11T03:43:25.547Z,0.35
2023-03-11T03:44:07.359Z,0.65
2023-03-11T03:44:50.290Z,0.40
2023-03-11T03:45:32.152Z,0.30
2023-03-11T03:46:14.413Z,0.30
2023-03-11T03:47:00.511Z,0.35
2023-03-11T03:47:42.490Z,0.30
2023-03-11T03:48:24.344Z,0.20
2023-03-11T03:49:06.120Z,0.45
2023-03-11T03:49:48.773Z,0.30
2023-03-11T03:50:30.457Z,0.30
2023-03-11T03:51:14.217Z,0.30
2023-03-11T03:52:02.477Z,0.30
2023-03-11T03:52:46.729Z,0.43
2023-03-11T03:53:28.419Z,0.30
2023-03-11T03:54:10.398Z,0.30
2023-03-11T03:54:52.141Z,0.40
2023-03-11T03:55:33.925Z,0.30
2023-03-11T03:56:18.148Z,0.30
2023-03-11T03:57:00.042Z,0.32
2023-03-11T03:57:41.795Z,0.43
2023-03-11T03:58:26.108Z,0.30
2023-03-11T03:59:07.850Z,0.30
2023-03-11T03:59:54.641Z,0.20
2023-03-11T04:00:36.667Z,0.30
2023-03-11T04:01:18.456Z,0.20
2023-03-11T04:02:00.390Z,0.28
2023-03-11T04:02:44.589Z,0.35
2023-03-11T04:03:35.907Z,0.40
2023-03-11T04:04:23.031Z,0.30
2023-03-11T04:05:05.961Z,0.30
2023-03-11T04:05:47.811Z,0.20
2023-03-11T04:06:29.773Z,0.30
2023-03-11T04:07:18.472Z,0.38
2023-03-11T04:08:00.616Z,0.50
2023-03-11T04:08:42.843Z,0.30
2023-03-11T04:09:26.104Z,0.30
2023-03-11T04:10:08.122Z,0.45
2023-03-11T04:10:57.626Z,0.28
2023-03-11T04:11:39.698Z,0.22
2023-03-11T04:12:22.386Z,0.20
2023-03-11T04:13:04.228Z,0.40
2023-03-11T04:13:46.798Z,0.98
2023-03-11T04:14:28.842Z,0.40
2023-03-11T04:15:13.951Z,0.30
2023-03-11T04:15:58.389Z,0.40
2023-03-11T04:16:40.482Z,0.35
2023-03-11T04:17:26.232Z,0.30
2023-03-11T04:18:09.681Z,0.20
2023-03-11T04:18:51.660Z,0.38
2023-03-11T04:19:34.605Z,0.40
2023-03-11T04:20:16.545Z,0.35
2023-03-11T04:21:05.952Z,0.30
2023-03-11T04:21:47.714Z,0.30
2023-03-11T04:22:30.089Z,0.30
2023-03-11T04:23:12.961Z,0.40
2023-03-11T04:23:54.755Z,0.28
2023-03-11T04:24:42.143Z,0.45
2023-03-11T04:25:23.979Z,0.30
2023-03-11T04:26:06.045Z,0.35
2023-03-11T04:26:49.614Z,0.50
2023-03-11T04:27:32.856Z,0.22
2023-03-11T04:28:16.092Z,0.20
2023-03-11T04:28:59.065Z,0.30
2023-03-11T04:29:43.494Z,0.47
2023-03-11T04:30:25.273Z,0.20
2023-03-11T04:31:11.798Z,0.45
2023-03-11T04:31:53.778Z,0.40
2023-03-11T04:32:35.577Z,0.30
2023-03-11T04:33:19.252Z,0.20
2023-03-11T04:34:01.451Z,0.20
2023-03-11T04:34:44.614Z,0.40
2023-03-11T04:35:32.675Z,0.40
2023-03-11T04:36:15.072Z,0.30
2023-03-11T04:36:57.212Z,0.30
2023-03-11T04:37:43.743Z,0.30
2023-03-11T04:38:25.638Z,0.50
2023-03-11T04:39:07.491Z,0.90
2023-03-11T04:39:54.497Z,1.23
2023-03-11T04:40:39.562Z,0.93
2023-03-11T04:41:21.443Z,1.60
2023-03-11T04:42:04.219Z,1.02
2023-03-11T04:42:47.267Z,1.27
2023-03-11T04:43:29.230Z,1.55
2023-03-11T04:44:11.092Z,1.80
2023-03-11T04:44:53.559Z,2.10
2023-03-11T04:45:39.202Z,2.40
2023-03-11T04:46:21.605Z,2.05
2023-03-11T04:47:03.834Z,2.17
2023-03-11T04:47:50.696Z,2.45
2023-03-11T04:48:32.842Z,2.65
2023-03-11T04:49:14.610Z,2.47
2023-03-11T04:49:56.472Z,2.80
2023-03-11T04:50:39.149Z,1.80
2023-03-11T04:51:20.843Z,1.08
2023-03-11T04:52:02.668Z,0.93
2023-03-11T04:52:45.429Z,1.02
2023-03-11T04:53:27.508Z,1.00
2023-03-11T04:54:09.690Z,0.55
2023-03-11T04:54:51.556Z,0.60
2023-03-11T04:55:33.343Z,0.60
2023-03-11T04:56:15.275Z,0.60
2023-03-11T04:56:57.215Z,0.50
2023-03-11T04:57:41.019Z,0.68
2023-03-11T04:58:23.711Z,0.60
2023-03-11T04:59:05.567Z,0.50
2023-03-11T04:59:49.369Z,0.40
2023-03-11T05:00:31.700Z,0.43
2023-03-11T05:01:19.677Z,0.40
2023-03-11T05:02:01.587Z,0.40
2023-03-11T05:02:43.659Z,0.60
2023-03-11T05:03:26.590Z,0.40
2023-03-11T05:04:08.531Z,0.50
2023-03-11T05:04:50.678Z,0.40
2023-03-11T05:05:32.479Z,0.55
2023-03-11T05:06:14.235Z,0.35
2023-03-11T05:06:56.097Z,0.43
2023-03-11T05:07:39.686Z,0.40
2023-03-11T05:08:26.241Z,0.88
2023-03-11T05:09:08.110Z,0.45
2023-03-11T05:09:52.904Z,0.50
2023-03-11T05:10:34.738Z,0.32
2023-03-11T05:11:19.460Z,0.57
2023-03-11T05:12:04.344Z,0.60
2023-03-11T05:12:47.275Z,0.45
2023-03-11T05:13:29.371Z,0.40
2023-03-11T05:14:11.150Z,0.40
2023-03-11T05:14:52.933Z,0.52
2023-03-11T05:15:35.361Z,0.40
2023-03-11T05:16:17.814Z,0.40
2023-03-11T05:16:59.630Z,0.32
2023-03-11T05:17:41.491Z,0.40
2023-03-11T05:18:23.266Z,0.50
2023-03-11T05:19:26.132Z,0.43
2023-03-11T05:20:08.561Z,0.45
2023-03-11T05:20:50.352Z,0.50
2023-03-11T05:21:34.332Z,0.53
2023-03-11T05:22:16.068Z,0.40
2023-03-11T05:22:58.377Z,0.52
2023-03-11T05:23:40.760Z,0.55
2023-03-11T05:24:23.091Z,0.60
2023-03-11T05:25:06.317Z,0.50
2023-03-11T05:25:48.627Z,0.47
2023-03-11T05:26:30.703Z,0.50
2023-03-11T05:27:13.499Z,0.40
2023-03-11T05:27:55.419Z,0.50
2023-03-11T05:28:37.225Z,0.40
2023-03-11T05:29:20.497Z,0.70
2023-03-11T05:30:03.773Z,0.40
2023-03-11T05:30:48.394Z,0.52
2023-03-11T05:31:30.563Z,0.35
2023-03-11T05:32:13.908Z,0.47
2023-03-11T05:32:56.993Z,0.82
2023-03-11T05:33:39.854Z,0.47
2023-03-11T05:34:25.046Z,0.60
2023-03-11T05:35:07.790Z,0.80
2023-03-11T05:35:51.956Z,0.55
2023-03-11T05:36:34.726Z,0.77
2023-03-11T05:37:16.608Z,0.60
2023-03-11T05:37:59.700Z,0.63
2023-03-11T05:38:44.523Z,0.60
2023-03-11T05:39:26.736Z,0.60
2023-03-11T05:40:12.124Z,0.47
2023-03-11T05:40:53.963Z,0.65
2023-03-11T05:41:35.868Z,1.00
2023-03-11T05:42:18.738Z,0.65
2023-03-11T05:43:03.706Z,0.68
2023-03-11T05:43:49.195Z,0.82
2023-03-11T05:44:31.515Z,0.70
2023-03-11T05:45:13.387Z,0.70
2023-03-11T05:45:56.562Z,0.60
2023-03-11T05:46:38.373Z,0.60
2023-03-11T05:47:21.643Z,1.00
2023-03-11T05:48:05.254Z,1.10
2023-03-11T05:48:47.720Z,1.25
2023-03-11T05:49:29.527Z,0.70
2023-03-11T05:50:12.496Z,1.20
2023-03-11T05:50:55.501Z,1.60
2023-03-11T05:51:38.129Z,1.50
2023-03-11T05:52:19.963Z,1.67
2023-03-11T05:53:02.469Z,1.50
2023-03-11T05:53:48.573Z,1.70
2023-03-11T05:54:35.417Z,1.50
2023-03-11T05:55:17.289Z,1.90
2023-03-11T05:56:01.077Z,1.60
2023-03-11T05:56:45.406Z,1.30
2023-03-11T05:57:28.706Z,1.23
2023-03-11T05:58:11.664Z,1.30
2023-03-11T05:58:53.608Z,1.17
2023-03-11T05:59:35.960Z,1.13
2023-03-11T06:00:20.535Z,0.70
2023-03-11T06:01:10.884Z,0.95
2023-03-11T06:01:52.749Z,0.75
2023-03-11T06:02:34.634Z,0.70
2023-03-11T06:03:16.392Z,1.00
2023-03-11T06:03:58.317Z,0.70
2023-03-11T06:04:40.351Z,0.60
2023-03-11T06:05:23.379Z,0.50
2023-03-11T06:06:09.485Z,0.70
2023-03-11T06:06:51.506Z,0.70
2023-03-11T06:07:36.532Z,0.60
2023-03-11T06:08:20.458Z,0.77
2023-03-11T06:09:04.155Z,0.57
2023-03-11T06:09:46.104Z,0.45
2023-03-11T06:10:32.167Z,0.90
2023-03-11T06:11:14.258Z,0.73
2023-03-11T06:11:56.629Z,0.93
2023-03-11T06:12:42.286Z,1.00
2023-03-11T06:13:32.496Z,0.77
2023-03-11T06:14:15.692Z,0.63
2023-03-11T06:14:59.818Z,0.90
2023-03-11T06:15:41.568Z,0.77
2023-03-11T06:16:25.259Z,0.60
2023-03-11T06:17:08.566Z,0.77
2023-03-11T06:17:50.355Z,0.70
2023-03-11T06:18:32.700Z,1.00
2023-03-11T06:19:14.532Z,0.98
2023-03-11T06:20:00.707Z,1.00
2023-03-11T06:20:42.482Z,1.00
2023-03-11T06:21:26.578Z,1.20
2023-03-11T06:22:08.552Z,0.80
2023-03-11T06:22:50.700Z,1.00
2023-03-11T06:23:33.192Z,0.95
2023-03-11T06:24:15.925Z,1.05
2023-03-11T06:24:58.294Z,1.00
2023-03-11T06:25:40.651Z,1.40
2023-03-11T06:26:23.771Z,1.10
2023-03-11T06:27:06.520Z,0.90
2023-03-11T06:27:53.323Z,0.77
2023-03-11T06:28:36.183Z,0.88
2023-03-11T06:29:18.196Z,0.80
2023-03-11T06:30:01.161Z,1.10
2023-03-11T06:30:45.263Z,1.38
2023-03-11T06:31:30.573Z,1.15
2023-03-11T06:32:18.802Z,4.72
2023-03-11T06:33:00.610Z,2.70
2023-03-11T06:33:42.822Z,2.20
2023-03-11T06:34:24.687Z,1.73
2023-03-11T06:35:07.472Z,2.53
2023-03-11T06:36:08.058Z,1.75
2023-03-11T06:36:49.920Z,2.00
2023-03-11T06:37:31.674Z,1.70
2023-03-11T06:38:13.494Z,1.50
2023-03-11T06:38:55.385Z,1.25
2023-03-11T06:39:39.303Z,1.05
2023-03-11T06:40:21.014Z,1.00
2023-03-11T06:41:04.958Z,1.05
2023-03-11T06:41:48.117Z,0.93
2023-03-11T06:42:29.819Z,0.82
2023-03-11T06:43:13.337Z,1.00
2023-03-11T06:43:59.717Z,0.98
2023-03-11T06:44:42.899Z,1.00
2023-03-11T06:45:24.697Z,1.00
2023-03-11T06:46:21.610Z,0.93
2023-03-11T06:47:04.670Z,0.80
2023-03-11T06:47:46.447Z,0.60
2023-03-11T06:48:28.413Z,1.00
2023-03-11T06:49:10.527Z,1.23
2023-03-11T06:49:54.361Z,1.00
2023-03-11T06:50:36.154Z,0.90
2023-03-11T06:51:19.874Z,0.70
2023-03-11T06:52:01.893Z,1.00
2023-03-11T06:52:43.765Z,0.90
2023-03-11T06:53:27.549Z,0.90
2023-03-11T06:54:10.399Z,0.82
2023-03-11T06:54:52.161Z,1.55
2023-03-11T06:55:34.752Z,3.05
2023-03-11T06:56:17.382Z,2.72
2023-03-11T06:57:07.768Z,2.40
2023-03-11T06:57:49.649Z,2.58
2023-03-11T06:58:32.795Z,2.55
2023-03-11T06:59:15.917Z,2.30
2023-03-11T06:59:57.745Z,1.80
2023-03-11T07:00:42.391Z,1.98
2023-03-11T07:01:26.120Z,2.25
2023-03-11T07:02:13.313Z,1.63
2023-03-11T07:02:55.806Z,1.67
2023-03-11T07:03:39.455Z,2.15
2023-03-11T07:04:21.695Z,3.05
2023-03-11T07:05:04.086Z,3.03
2023-03-11T07:05:49.865Z,2.10
2023-03-11T07:06:31.626Z,1.70
2023-03-11T07:07:21.474Z,1.77
2023-03-11T07:08:03.493Z,2.03
2023-03-11T07:08:50.915Z,1.80
2023-03-11T07:09:33.414Z,1.95
2023-03-11T07:10:15.280Z,2.10
2023-03-11T07:11:14.670Z,1.85
2023-03-11T07:11:56.941Z,1.50
2023-03-11T07:12:44.245Z,1.20
2023-03-11T07:13:26.000Z,0.98
2023-03-11T07:14:08.508Z,1.20
2023-03-11T07:14:57.236Z,1.40
2023-03-11T07:15:39.375Z,1.25
2023-03-11T07:16:27.789Z,1.42
2023-03-11T07:17:15.518Z,1.50
2023-03-11T07:18:02.352Z,1.52
2023-03-11T07:18:46.147Z,0.88
2023-03-11T07:19:28.138Z,0.73
2023-03-11T07:20:10.731Z,0.82
2023-03-11T07:20:52.506Z,1.23
2023-03-11T07:21:34.487Z,0.90
2023-03-11T07:22:16.687Z,0.95
2023-03-11T07:22:58.581Z,1.20
2023-03-11T07:23:40.682Z,1.73
2023-03-11T07:24:22.447Z,1.08
2023-03-11T07:25:04.760Z,1.25
2023-03-11T07:25:47.859Z,1.00
2023-03-11T07:26:31.553Z,1.35
2023-03-11T07:27:13.464Z,4.28
2023-03-11T07:27:55.158Z,3.45
2023-03-11T07:28:37.274Z,1.63
2023-03-11T07:29:20.289Z,1.38
2023-03-11T07:30:03.087Z,0.93
2023-03-11T07:30:46.503Z,1.38
2023-03-11T07:31:31.002Z,1.10
2023-03-11T07:32:12.914Z,1.00
2023-03-11T07:32:54.837Z,1.30
2023-03-11T07:33:36.828Z,1.05
2023-03-11T07:34:18.953Z,1.00
2023-03-11T07:35:00.772Z,1.10
2023-03-11T07:35:42.751Z,1.17
2023-03-11T07:36:25.714Z,0.93
2023-03-11T07:37:07.626Z,1.02
2023-03-11T07:37:49.358Z,0.85
2023-03-11T07:38:31.159Z,1.00
2023-03-11T07:39:15.543Z,1.00
2023-03-11T07:39:57.271Z,1.02
2023-03-11T07:40:38.966Z,1.10
2023-03-11T07:41:20.941Z,3.70
2023-03-11T07:42:04.896Z,1.17
2023-03-11T07:42:51.048Z,2.50
2023-03-11T07:43:35.714Z,1.17
2023-03-11T07:44:18.557Z,1.30
2023-03-11T07:45:00.279Z,1.00
2023-03-11T07:45:42.038Z,0.90
2023-03-11T07:46:25.491Z,1.17
2023-03-11T07:47:07.316Z,1.00
2023-03-11T07:47:50.857Z,1.00
2023-03-11T07:48:33.288Z,1.00
2023-03-11T07:49:15.225Z,0.60
2023-03-11T07:49:57.381Z,0.75
2023-03-11T07:50:39.324Z,0.80
2023-03-11T07:51:26.817Z,0.90
2023-03-11T07:52:08.806Z,0.88
2023-03-11T07:52:50.637Z,0.85
2023-03-11T07:53:32.867Z,0.90
2023-03-11T07:54:14.895Z,0.82
2023-03-11T07:54:56.676Z,0.90
2023-03-11T07:55:38.585Z,0.95
2023-03-11T07:56:22.676Z,0.73
2023-03-11T07:57:04.625Z,1.27
2023-03-11T07:57:49.400Z,0.90
2023-03-11T07:58:31.283Z,1.05
2023-03-11T07:59:13.226Z,1.15
2023-03-11T07:59:54.973Z,0.70
2023-03-11T08:00:36.761Z,0.70
2023-03-11T08:01:24.008Z,0.70
2023-03-11T08:02:05.832Z,1.02
2023-03-11T08:02:47.695Z,0.68
2023-03-11T08:03:29.525Z,0.90
2023-03-11T08:04:14.294Z,1.00
2023-03-11T08:04:57.182Z,1.40
2023-03-11T08:05:38.972Z,0.70
2023-03-11T08:06:26.125Z,0.75
2023-03-11T08:07:08.099Z,0.80
2023-03-11T08:07:49.998Z,0.90
2023-03-11T08:08:31.680Z,0.80
2023-03-11T08:09:13.932Z,0.75
2023-03-11T08:09:55.985Z,1.08
2023-03-11T08:10:38.781Z,0.75
2023-03-11T08:11:21.443Z,0.60
2023-03-11T08:12:03.431Z,1.30
2023-03-11T08:12:45.260Z,0.70
2023-03-11T08:13:27.044Z,0.75
2023-03-11T08:14:09.123Z,0.88
2023-03-11T08:14:50.903Z,0.60
2023-03-11T08:15:32.992Z,1.58
2023-03-11T08:16:17.748Z,0.77
2023-03-11T08:16:59.626Z,0.68
2023-03-11T08:17:41.449Z,0.80
2023-03-11T08:18:23.201Z,0.60
2023-03-11T08:19:04.997Z,0.98
2023-03-11T08:19:49.585Z,1.20
2023-03-11T08:20:31.459Z,0.90
2023-03-11T08:21:17.135Z,0.63
2023-03-11T08:22:02.126Z,0.77
2023-03-11T08:22:57.333Z,1.00
2023-03-11T08:23:40.690Z,0.73
2023-03-11T08:24:22.696Z,1.40
2023-03-11T08:25:04.850Z,0.65
2023-03-11T08:25:47.188Z,0.80
2023-03-11T08:26:30.043Z,1.02
2023-03-11T08:27:12.548Z,0.77
2023-03-11T08:27:54.521Z,1.13
2023-03-11T08:28:36.779Z,0.88
2023-03-11T08:29:18.560Z,0.88
2023-03-11T08:30:00.316Z,1.35
2023-03-11T08:30:42.607Z,0.75
2023-03-11T08:31:27.861Z,1.02
2023-03-11T08:32:09.604Z,1.00
2023-03-11T08:32:51.628Z,0.95
2023-03-11T08:33:33.346Z,0.70
2023-03-11T08:34:15.878Z,1.25
2023-03-11T08:34:58.647Z,1.00
2023-03-11T08:35:40.536Z,1.00
2023-03-11T08:36:22.578Z,0.98
2023-03-11T08:37:04.314Z,1.05
2023-03-11T08:37:46.067Z,1.02
2023-03-11T08:38:27.914Z,0.85
2023-03-11T08:39:09.842Z,1.17
2023-03-11T08:39:51.717Z,0.90
2023-03-11T08:40:33.468Z,0.95
2023-03-11T08:41:15.973Z,0.90
2023-03-11T08:41:57.822Z,1.00
2023-03-11T08:42:39.624Z,0.60
2023-03-11T08:43:21.433Z,0.70
2023-03-11T08:44:03.317Z,0.77
2023-03-11T08:44:45.354Z,0.85
2023-03-11T08:45:27.025Z,0.85
2023-03-11T08:46:08.918Z,0.73
2023-03-11T08:46:50.944Z,0.70
2023-03-11T08:47:37.200Z,0.80
2023-03-11T08:48:18.878Z,1.00
2023-03-11T08:49:01.717Z,0.80
2023-03-11T08:49:43.669Z,1.20
2023-03-11T08:50:25.620Z,1.05
2023-03-11T08:51:11.976Z,1.08
2023-03-11T08:51:53.716Z,1.00
2023-03-11T08:52:35.836Z,0.90
2023-03-11T08:53:17.749Z,0.90
2023-03-11T08:54:00.421Z,1.63
2023-03-11T08:54:42.716Z,1.27
2023-03-11T08:55:27.719Z,1.15
2023-03-11T08:56:09.649Z,0.90
2023-03-11T08:56:51.392Z,0.73
2023-03-11T08:57:33.370Z,0.93
2023-03-11T08:58:15.506Z,0.75
2023-03-11T08:58:57.485Z,1.00
2023-03-11T08:59:39.334Z,0.80
2023-03-11T09:00:21.816Z,0.85
2023-03-11T09:01:04.142Z,1.13
2023-03-11T09:01:46.857Z,0.95
2023-03-11T09:02:28.848Z,1.10
2023-03-11T09:03:10.826Z,0.80
2023-03-11T09:03:52.748Z,1.02
2023-03-11T09:04:34.586Z,0.73
2023-03-11T09:05:16.620Z,1.08
2023-03-11T09:06:04.094Z,1.15
2023-03-11T09:06:45.997Z,0.93
2023-03-11T09:07:27.906Z,1.05
2023-03-11T09:08:10.009Z,0.90
2023-03-11T09:08:52.024Z,0.85
2023-03-11T09:09:33.835Z,1.02
2023-03-11T09:10:16.706Z,0.80
2023-03-11T09:10:58.539Z,0.98
2023-03-11T09:11:41.626Z,1.20
2023-03-11T09:12:23.504Z,1.20
2023-03-11T09:13:05.279Z,1.08
2023-03-11T09:13:47.117Z,0.65
2023-03-11T09:14:29.078Z,1.15
2023-03-11T09:15:11.004Z,0.85
2023-03-11T09:15:53.504Z,0.95
2023-03-11T09:16:35.386Z,0.57
2023-03-11T09:17:17.325Z,0.82
2023-03-11T09:17:59.833Z,0.80
2023-03-11T09:18:41.597Z,0.70
2023-03-11T09:19:23.434Z,0.80
2023-03-11T09:20:05.903Z,1.42
2023-03-11T09:20:48.015Z,1.20
2023-03-11T09:21:29.821Z,1.30
2023-03-11T09:22:11.639Z,0.98
2023-03-11T09:22:53.414Z,0.80
2023-03-11T09:23:35.260Z,0.77
2023-03-11T09:24:17.054Z,0.90
2023-03-11T09:24:58.741Z,0.88
2023-03-11T09:25:40.617Z,0.73
2023-03-11T09:26:22.485Z,1.67
2023-03-11T09:27:04.589Z,1.30
2023-03-11T09:27:46.320Z,1.88
2023-03-11T09:28:28.126Z,2.80
2023-03-11T09:29:09.939Z,1.45
2023-03-11T09:29:51.825Z,1.35
2023-03-11T09:30:33.918Z,1.48
2023-03-11T09:31:16.120Z,0.93
2023-03-11T09:31:57.974Z,1.50
2023-03-11T09:32:39.644Z,1.02
2023-03-11T09:33:21.554Z,0.80
2023-03-11T09:34:03.290Z,1.05
2023-03-11T09:34:45.106Z,0.63
2023-03-11T09:35:27.437Z,0.75
2023-03-11T09:36:14.715Z,0.80
2023-03-11T09:36:56.373Z,1.00
2023-03-11T09:37:39.094Z,0.73